St. George, Utah Weather observations

Data are for observation ending at time listed.
 Day   Time    Ave.   Ave.  Ave.  Vector   Max.   Stn.    Total    Solar   Ave.  
  of    of     Air    Rel.  Wind   Wind    Wind   Baro.  Precip.   Rad.    Soil  
Year   Day     Temp.  Hum.  Speed  Dir.    Gust   Pres.                    Temp. 
2014   (MST)    F      %     mph   deg.    mph     mb.     in.     W/m2     F   
------------------------------------------------------------------------------
 354    2:50   39.3    85    1.6   350      2.7   926.8    0.00       0    50.7
 354    3:00   39.1    85    0.1   350      0.9   926.8    0.00       0    50.7
 354    3:10   38.7    85    0.2   347      1.0   926.7    0.00       0    50.6
 354    3:20   38.4    85    0.4   188      3.1   926.8    0.00       0    50.6
 354    3:30   37.9    86    0.2   228      1.8   926.8    0.00       0    50.5
 354    3:40   37.5    87    1.6   236      2.6   926.9    0.00       0    50.5
 354    3:50   37.1    88    0.4   236      2.0   926.9    0.00       0    50.4
 354    4:00   36.9    88    0.6    84      1.5   926.7    0.00       0    50.3
 354    4:10   36.9    89    0.3    40      1.1   926.6    0.00       0    50.3
 354    4:20   36.5    88    0.6   274      1.8   926.5    0.00       0    50.2
 354    4:30   36.1    89    0.2   348      1.7   926.4    0.00       0    50.1
 354    4:40   36.2    89    0.5   342      1.7   926.5    0.00       0    50.1
 354    4:50   36.0    90    0.4   337      1.6   926.7    0.00       0    50.0
 354    5:00   35.8    90    0.3   322      1.5   926.8    0.00       0    49.9
 354    5:10   35.4    90    0.2    18      0.9   926.9    0.00       0    49.9
 354    5:20   35.6    90    0.1    72      0.7   927.0    0.00       0    49.8
 354    5:30   35.6    91    0.7    74      1.5   926.9    0.00       0    49.8
 354    5:40   35.5    91    0.1    54      0.9   927.0    0.00       0    49.7
 354    5:50   35.4    91    0.5   346      1.5   927.0    0.00       0    49.6
 354    6:00   35.1    91    0.1   219      0.7   926.9    0.00       0    49.6
 354    6:10   34.7    91    0.1   219      0.7   926.9    0.00       0    49.5
 354    6:20   34.8    91    0.0     0      0.0   926.9    0.00       0    49.4
 354    6:30   34.9    91    0.3   146      0.9   926.9    0.00       0    49.4
 354    6:40   35.0    91    0.0    93      0.7   926.9    0.00       0    49.3
 354    6:50   34.9    92    0.0   344      0.5   926.9    0.00       0    49.3
 354    7:00   34.7    92    0.2   271      1.4   926.9    0.00       0    49.2
 354    7:10   34.4    91    0.4   323      0.9   926.8    0.00       0    49.1
 354    7:20   34.2    92    0.1   323      0.5   926.5    0.00       0    49.1
 354    7:30   34.1    92    0.3    24      1.2   926.4    0.00       2    49.0
 354    7:40   34.2    92    0.7    80      1.8   926.2    0.00       3    49.0
 354    7:50   34.0    92    1.6   282      2.9   926.5    0.00       6    48.9
 354    8:00   33.9    92    0.7   291      2.1   926.6    0.00      14    48.8
 354    8:10   34.1    92    0.0   308      0.6   926.7    0.00      23    48.8
 354    8:20   34.2    92    0.2   277      1.1   926.8    0.00      33    48.7
 354    8:30   35.0    91    1.3   239      2.4   927.2    0.00      41    48.7
 354    8:40   35.5    90    1.6   169      2.9   927.2    0.00      38    48.6
 354    8:50   35.7    89    0.5   127      2.7   927.4    0.00      71    48.5
 354    9:00   36.5    88    0.7   115      2.1   927.5    0.00     188    48.5
 354    9:10   37.3    87    1.6   118      3.5   927.4    0.00     123    48.4
 354    9:20   37.9    84    1.6   179      2.9   927.5    0.00     128    48.4
 354    9:30   38.2    83    1.6   155      3.1   927.5    0.00     184    48.3
 354    9:40   39.0    82    1.5   136      3.1   927.5    0.00     187    48.3
 354    9:50   39.2    81    1.6   168      3.1   927.8    0.00     195    48.3
 354   10:00   39.2    81    1.5   189      2.7   927.9    0.00     187    48.3
 354   10:10   39.5    80    1.4   186      2.9   928.0    0.00     184    48.3
 354   10:20   40.2    79    1.1   180      2.7   928.0    0.00     192    48.3
 354   10:30   40.7    78    0.8   188      2.5   928.2    0.00     216    48.3
 354   10:40   40.9    77    0.8   184      2.5   928.2    0.00     209    48.3
 354   10:50   41.9    76    0.8   110      2.1   928.3    0.00     212    48.3
 354   11:00   42.2    74    1.5   179      3.1   928.3    0.00     217    48.3
 354   11:10   41.8    75    1.9   178      3.7   928.0    0.00     237    48.3
 354   11:20   42.2    74    1.9   163      3.5   927.7    0.00     271    48.3
 354   11:30   42.9    72    1.7   175      3.7   927.4    0.00     235    48.4
 354   11:40   42.6    71    1.7   207      3.4   927.3    0.00     175    48.4
 354   11:50   42.9    70    0.4   260      1.4   927.3    0.00     172    48.4
 354   12:00   43.8    69    0.8   148      2.2   927.4    0.00     218    48.5
 354   12:10   43.8    69    1.6   194      2.7   927.2    0.00     315    48.5
 354   12:20   44.6    66    1.7   183      3.6   926.7    0.00     364    48.6
 354   12:30   45.6    64    1.3   112      3.1   926.5    0.00     368    48.6
 354   12:40   46.8    62    0.7    96      2.3   926.2    0.00     389    48.7
 354   12:50   47.4    58    1.3   232      2.9   926.1    0.00     350    48.7
 354   13:00   49.3    55    1.0   160      3.3   926.1    0.00     416    48.8
 354   13:10   49.2    55    1.9   282      5.3   925.9    0.00     423    48.9
 354   13:20   49.5    54    1.7   290      4.9   925.7    0.00     440    49.0
 354   13:30   49.6    54    3.2   258      7.2   925.5    0.00     371    49.1
 354   13:40   49.9    52    2.5   241      5.3   925.3    0.00     491    49.2
 354   13:50   49.8    52    2.8   261      6.6   925.2    0.00     219    49.4
 354   14:00   49.9    51    1.6   273      3.1   925.1    0.00     228    49.5
 354   14:10   49.9    51    2.8   192      5.0   925.0    0.00     180    49.6
 354   14:20   49.9    51    2.4   186      4.5   924.7    0.00     174    49.8
 354   14:30   49.6    52    3.3   188      5.3   924.6    0.00     109    49.9
 354   14:40   49.4    53    3.5   187      6.4   924.2    0.00     198    50.0
 354   14:50   49.4    53    4.1   194      6.1   924.0    0.00     137    50.1
 354   15:00   49.2    53    2.2   191      5.3   924.2    0.00     102    50.3
 354   15:10   49.6    52    1.4   236      4.0   924.6    0.00      75    50.4
 354   15:20   49.5    52    2.2   221      3.8   924.7    0.00      53    50.5
 354   15:30   49.7    52    1.3   239      2.8   924.7    0.00      55    50.5
 354   15:40   49.6    53    1.8   175      2.9   924.7    0.00      66    50.6
 354   15:50   49.5    52    2.1   183      3.6   924.7    0.00      87    50.7
 354   16:00   49.5    53    2.1   179      3.9   924.6    0.00      69    50.8
 354   16:10   49.4    53    2.5   185      4.5   924.6    0.00      67    50.8
 354   16:20   49.4    53    2.4   187      3.9   924.7    0.00      59    50.9
 354   16:30   49.4    53    2.1   191      3.5   925.0    0.00      44    50.9
 354   16:40   49.2    54    2.2   176      3.8   925.2    0.00      32    51.0
 354   16:50   49.1    55    2.3   185      3.5   924.9    0.00      22    51.0
 354   17:00   49.0    55    1.6   178      2.8   924.6    0.00      16    51.0
 354   17:10   48.8    57    1.0   123      2.8   924.5    0.00       9    51.1
 354   17:20   48.5    57    0.3   151      1.2   924.5    0.00       4    51.1
 354   17:30   48.3    58    0.3   286      1.1   924.7    0.00       0    51.1
 354   17:40   48.6    58    0.6   243      2.1   925.0    0.00       0    51.1
 354   17:50   48.6    57    1.0   233      2.0   925.0    0.00       0    51.1
 354   18:00   48.6    57    0.2   275      1.0   925.0    0.00       0    51.1
 354   18:10   48.6    57    0.7   234      1.6   925.2    0.00       0    51.1
 354   18:20   48.6    57    1.2   201      1.9   925.3    0.00       0    51.1
 354   18:30   48.5    57    1.9   187      3.2   925.3    0.00       0    51.1
 354   18:40   48.5    58    1.2   190      2.9   925.0    0.00       0    51.2
 354   18:50   48.4    58    0.9   205      2.4   924.8    0.00       0    51.1
 354   19:00   48.1    59    0.3   192      2.0   924.7    0.00       0    51.1
 354   19:10   47.9    60    0.3   132      1.5   924.9    0.00       0    51.1
 354   19:20   47.8    61    0.7   118      1.5   925.1    0.00       0    51.1
 354   19:30   47.6    61    0.4   132      2.6   925.2    0.00       0    51.1
 354   19:40   47.4    62    0.8   132      3.2   925.5    0.00       0    51.1
 354   19:50   47.3    62    0.2   169      0.9   925.6    0.00       0    51.1
 354   20:00   47.4    62    0.7   201      1.5   925.2    0.00       0    51.1
 354   20:10   46.9    63    0.2   310      1.1   925.3    0.00       0    51.1
 354   20:20   46.4    64    0.8   316      1.8   925.4    0.00       0    51.0
 354   20:30   46.1    65    0.0   228      0.7   925.4    0.00       0    51.0
 354   20:40   45.7    66    0.3    13      1.0   925.5    0.00       0    51.0
 354   20:50   45.4    66    0.7    84      1.6   925.2    0.00       0    51.0
 354   21:00   45.3    67    1.8    44      2.6   925.3    0.00       0    51.0
 354   21:10   45.2    69    1.3    41      2.3   925.6    0.00       0    51.0
 354   21:20   45.0    69    0.1   271      1.0   925.6    0.00       0    50.9
 354   21:30   44.3    70    1.2   230      2.0   925.6    0.00       0    50.9
 354   21:40   43.9    71    1.1   343      3.0   925.7    0.00       0    50.8
 354   21:50   43.8    71    0.8     2      2.0   925.8    0.00       0    50.8
 354   22:00   43.3    73    1.0    20      1.5   925.8    0.00       0    50.8
 354   22:10   43.2    72    0.5    59      1.9   925.7    0.00       0    50.8
 354   22:20   43.3    73    0.5    21      1.3   925.9    0.00       0    50.7
 354   22:30   42.8    74    1.1   221      2.1   926.0    0.00       0    50.7
 354   22:40   42.2    75    0.3   131      1.8   926.0    0.00       0    50.7
 354   22:50   41.8    75    0.1   252      1.3   926.0    0.00       0    50.6
 354   23:00   41.4    76    1.5   302      2.6   926.1    0.00       0    50.6
 354   23:10   41.1    77    0.8    26      2.3   926.1    0.00       0    50.5
 354   23:20   41.1    78    0.6     0      2.0   926.3    0.00       0    50.5
 354   23:30   41.0    78    0.5   343      1.3   926.1    0.00       0    50.4
 354   23:40   40.8    78    1.3   292      2.6   926.0    0.00       0    50.4
 354   23:50   40.6    78    0.9    96      1.8   926.0    0.00       0    50.3
 355    0:00   40.2    79    0.4    31      1.6   926.1    0.00       0    50.3
 355    0:10   39.9    80    1.3   352      1.8   926.3    0.00       0    50.2
 355    0:20   39.9    80    0.1   335      1.1   926.3    0.00       0    50.2
 355    0:30   39.6    80    0.6    83      2.3   926.3    0.00       0    50.1
 355    0:40   39.9    80    0.5   214      1.4   926.4    0.00       0    50.1
 355    0:50   39.5    80    0.0   253      0.7   926.2    0.00       0    50.0
 355    1:00   39.0    81    0.0   348      0.3   926.2    0.00       0    50.0
 355    1:10   38.7    83    0.7    88      2.3   926.0    0.00       0    49.9
 355    1:20   38.9    83    1.2    78      2.8   925.9    0.00       0    49.9
 355    1:30   38.7    84    1.0    24      2.4   926.0    0.00       0    49.8
 355    1:40   38.7    84    0.9   197      2.3   926.2    0.00       0    49.7
 355    1:50   38.2    84    0.7   244      2.0   926.2    0.00       0    49.7
 355    2:00   37.9    85    0.5   231      1.8   926.5    0.00       0    49.6
 355    2:10   37.9    85    0.3   296      1.3   926.4    0.00       0    49.6
 355    2:20   37.9    86    0.1   322      0.9   926.4    0.00       0    49.5
 355    2:30   38.0    86    1.5    38      2.6   926.7    0.00       0    49.5
 355    2:40   38.0    86    0.5   234      1.9   926.6    0.00       0    49.4

Return to St. George, Utah graphs page.


Western Regional Climate Center,wrcc@dri.edu